sensor_id;sensor_type;location;lat;lon;timestamp;P1;durP1;ratioP1;P2;durP2;ratioP2
81211;SDS011;70686;52.494;13.420;2023-08-24T00:00:55;9.38;;;6.00;;
81211;SDS011;70686;52.494;13.420;2023-08-24T00:03:21;8.90;;;5.82;;
81211;SDS011;70686;52.494;13.420;2023-08-24T00:05:47;9.43;;;5.50;;
81211;SDS011;70686;52.494;13.420;2023-08-24T00:08:14;9.82;;;6.13;;
81211;SDS011;70686;52.494;13.420;2023-08-24T00:10:42;8.77;;;5.88;;
81211;SDS011;70686;52.494;13.420;2023-08-24T00:13:09;10.23;;;6.00;;
81211;SDS011;70686;52.494;13.420;2023-08-24T00:15:35;8.40;;;6.30;;
81211;SDS011;70686;52.494;13.420;2023-08-24T00:18:01;10.23;;;5.75;;
81211;SDS011;70686;52.494;13.420;2023-08-24T00:20:27;9.40;;;5.80;;
81211;SDS011;70686;52.494;13.420;2023-08-24T00:22:52;8.82;;;6.03;;
81211;SDS011;70686;52.494;13.420;2023-08-24T00:25:18;10.98;;;5.88;;
81211;SDS011;70686;52.494;13.420;2023-08-24T00:27:44;9.10;;;6.13;;
81211;SDS011;70686;52.494;13.420;2023-08-24T00:30:09;10.98;;;6.13;;
81211;SDS011;70686;52.494;13.420;2023-08-24T00:32:36;7.88;;;6.15;;
81211;SDS011;70686;52.494;13.420;2023-08-24T00:35:02;8.38;;;5.72;;
81211;SDS011;70686;52.494;13.420;2023-08-24T00:37:31;9.60;;;5.93;;
81211;SDS011;70686;52.494;13.420;2023-08-24T00:40:01;11.30;;;6.45;;
81211;SDS011;70686;52.494;13.420;2023-08-24T00:42:36;10.05;;;6.10;;
81211;SDS011;70686;52.494;13.420;2023-08-24T00:45:03;9.45;;;6.05;;
81211;SDS011;70686;52.494;13.420;2023-08-24T00:47:29;9.00;;;6.20;;
81211;SDS011;70686;52.494;13.420;2023-08-24T00:49:55;9.88;;;6.38;;
81211;SDS011;70686;52.494;13.420;2023-08-24T00:52:21;9.38;;;5.78;;
81211;SDS011;70686;52.494;13.420;2023-08-24T00:54:46;8.25;;;6.30;;
81211;SDS011;70686;52.494;13.420;2023-08-24T00:57:12;8.05;;;5.47;;
81211;SDS011;70686;52.494;13.420;2023-08-24T00:59:38;8.00;;;5.88;;
81211;SDS011;70686;52.494;13.420;2023-08-24T01:02:04;9.50;;;6.15;;
81211;SDS011;70686;52.494;13.420;2023-08-24T01:04:30;8.90;;;6.22;;
81211;SDS011;70686;52.494;13.420;2023-08-24T01:06:56;9.93;;;6.25;;
81211;SDS011;70686;52.494;13.420;2023-08-24T01:09:21;10.25;;;6.78;;
81211;SDS011;70686;52.494;13.420;2023-08-24T01:12:04;8.55;;;5.57;;
81211;SDS011;70686;52.494;13.420;2023-08-24T01:17:24;8.25;;;6.10;;
81211;SDS011;70686;52.494;13.420;2023-08-24T01:19:54;7.80;;;5.80;;
81211;SDS011;70686;52.494;13.420;2023-08-24T01:25:24;7.45;;;5.15;;
81211;SDS011;70686;52.494;13.420;2023-08-24T01:28:02;7.45;;;5.60;;
81211;SDS011;70686;52.494;13.420;2023-08-24T01:30:29;7.47;;;5.35;;
81211;SDS011;70686;52.494;13.420;2023-08-24T01:32:55;6.97;;;5.03;;
81211;SDS011;70686;52.494;13.420;2023-08-24T01:35:21;8.23;;;5.15;;
81211;SDS011;70686;52.494;13.420;2023-08-24T01:37:47;6.97;;;4.88;;
81211;SDS011;70686;52.494;13.420;2023-08-24T01:42:52;6.82;;;4.82;;
81211;SDS011;70686;52.494;13.420;2023-08-24T01:45:25;6.53;;;4.65;;
81211;SDS011;70686;52.494;13.420;2023-08-24T01:47:54;7.50;;;4.88;;
81211;SDS011;70686;52.494;13.420;2023-08-24T01:50:21;7.93;;;4.72;;
81211;SDS011;70686;52.494;13.420;2023-08-24T01:52:47;8.20;;;5.13;;
81211;SDS011;70686;52.494;13.420;2023-08-24T01:55:13;7.70;;;5.55;;
81211;SDS011;70686;52.494;13.420;2023-08-24T01:57:40;8.43;;;6.07;;
81211;SDS011;70686;52.494;13.420;2023-08-24T02:00:06;7.20;;;5.47;;
81211;SDS011;70686;52.494;13.420;2023-08-24T02:02:34;10.93;;;6.10;;
81211;SDS011;70686;52.494;13.420;2023-08-24T02:05:00;9.63;;;6.05;;
81211;SDS011;70686;52.494;13.420;2023-08-24T02:07:26;8.30;;;5.43;;
81211;SDS011;70686;52.494;13.420;2023-08-24T02:09:51;8.82;;;6.28;;
81211;SDS011;70686;52.494;13.420;2023-08-24T02:12:17;7.70;;;6.10;;
81211;SDS011;70686;52.494;13.420;2023-08-24T02:14:42;7.93;;;6.25;;
81211;SDS011;70686;52.494;13.420;2023-08-24T02:17:08;8.63;;;6.38;;
81211;SDS011;70686;52.494;13.420;2023-08-24T02:19:34;8.10;;;5.80;;
81211;SDS011;70686;52.494;13.420;2023-08-24T02:21:59;10.00;;;6.22;;
81211;SDS011;70686;52.494;13.420;2023-08-24T02:24:25;8.70;;;6.40;;
81211;SDS011;70686;52.494;13.420;2023-08-24T02:26:51;10.40;;;6.38;;
81211;SDS011;70686;52.494;13.420;2023-08-24T02:29:16;10.02;;;6.80;;
81211;SDS011;70686;52.494;13.420;2023-08-24T02:31:42;8.65;;;6.70;;
81211;SDS011;70686;52.494;13.420;2023-08-24T02:34:08;9.93;;;6.38;;
81211;SDS011;70686;52.494;13.420;2023-08-24T02:36:33;9.60;;;7.00;;
81211;SDS011;70686;52.494;13.420;2023-08-24T02:38:59;9.48;;;7.38;;
81211;SDS011;70686;52.494;13.420;2023-08-24T02:41:26;9.73;;;6.72;;
81211;SDS011;70686;52.494;13.420;2023-08-24T02:43:52;11.63;;;7.15;;
81211;SDS011;70686;52.494;13.420;2023-08-24T02:46:18;10.15;;;7.40;;
81211;SDS011;70686;52.494;13.420;2023-08-24T02:48:44;8.75;;;6.47;;
81211;SDS011;70686;52.494;13.420;2023-08-24T02:51:10;10.77;;;6.90;;
81211;SDS011;70686;52.494;13.420;2023-08-24T02:53:35;9.27;;;6.63;;
81211;SDS011;70686;52.494;13.420;2023-08-24T02:56:01;9.27;;;7.30;;
81211;SDS011;70686;52.494;13.420;2023-08-24T02:58:27;10.80;;;7.53;;
81211;SDS011;70686;52.494;13.420;2023-08-24T03:00:53;9.75;;;7.45;;
81211;SDS011;70686;52.494;13.420;2023-08-24T03:03:19;9.00;;;7.18;;
81211;SDS011;70686;52.494;13.420;2023-08-24T03:05:58;9.43;;;7.00;;
81211;SDS011;70686;52.494;13.420;2023-08-24T03:08:26;9.50;;;6.85;;
81211;SDS011;70686;52.494;13.420;2023-08-24T03:10:52;11.90;;;7.22;;
81211;SDS011;70686;52.494;13.420;2023-08-24T03:13:18;9.75;;;6.85;;
81211;SDS011;70686;52.494;13.420;2023-08-24T03:15:44;7.75;;;6.15;;
81211;SDS011;70686;52.494;13.420;2023-08-24T03:18:11;8.25;;;7.07;;
81211;SDS011;70686;52.494;13.420;2023-08-24T03:20:38;9.57;;;7.20;;
81211;SDS011;70686;52.494;13.420;2023-08-24T03:23:04;8.90;;;7.22;;
81211;SDS011;70686;52.494;13.420;2023-08-24T03:25:30;7.80;;;6.97;;
81211;SDS011;70686;52.494;13.420;2023-08-24T03:28:00;8.73;;;6.57;;
81211;SDS011;70686;52.494;13.420;2023-08-24T03:30:25;7.97;;;5.97;;
81211;SDS011;70686;52.494;13.420;2023-08-24T03:32:51;8.52;;;6.40;;
81211;SDS011;70686;52.494;13.420;2023-08-24T03:35:16;7.18;;;5.97;;
81211;SDS011;70686;52.494;13.420;2023-08-24T03:37:42;8.10;;;6.35;;
81211;SDS011;70686;52.494;13.420;2023-08-24T03:40:08;12.43;;;6.35;;
81211;SDS011;70686;52.494;13.420;2023-08-24T03:42:33;7.38;;;5.72;;
81211;SDS011;70686;52.494;13.420;2023-08-24T03:44:59;7.97;;;5.75;;
81211;SDS011;70686;52.494;13.420;2023-08-24T03:47:25;10.63;;;6.03;;
81211;SDS011;70686;52.494;13.420;2023-08-24T03:49:50;7.85;;;5.65;;
81211;SDS011;70686;52.494;13.420;2023-08-24T03:52:16;7.15;;;5.90;;
81211;SDS011;70686;52.494;13.420;2023-08-24T03:54:42;7.13;;;5.53;;
81211;SDS011;70686;52.494;13.420;2023-08-24T03:57:07;7.15;;;5.30;;
81211;SDS011;70686;52.494;13.420;2023-08-24T03:59:33;9.20;;;5.97;;
81211;SDS011;70686;52.494;13.420;2023-08-24T04:01:58;7.47;;;5.20;;
81211;SDS011;70686;52.494;13.420;2023-08-24T04:04:27;7.18;;;5.57;;
81211;SDS011;70686;52.494;13.420;2023-08-24T04:06:53;5.97;;;5.35;;
81211;SDS011;70686;52.494;13.420;2023-08-24T04:09:18;8.73;;;5.13;;
81211;SDS011;70686;52.494;13.420;2023-08-24T04:11:44;6.25;;;4.85;;
81211;SDS011;70686;52.494;13.420;2023-08-24T04:14:09;7.88;;;5.15;;
81211;SDS011;70686;52.494;13.420;2023-08-24T04:16:35;7.63;;;5.25;;
81211;SDS011;70686;52.494;13.420;2023-08-24T04:19:01;6.90;;;5.45;;
81211;SDS011;70686;52.494;13.420;2023-08-24T04:21:26;7.35;;;5.60;;
81211;SDS011;70686;52.494;13.420;2023-08-24T04:23:52;8.52;;;5.40;;
81211;SDS011;70686;52.494;13.420;2023-08-24T04:26:18;6.53;;;5.22;;
81211;SDS011;70686;52.494;13.420;2023-08-24T04:28:44;6.72;;;5.35;;
81211;SDS011;70686;52.494;13.420;2023-08-24T04:31:09;8.35;;;5.93;;
81211;SDS011;70686;52.494;13.420;2023-08-24T04:33:35;6.85;;;5.40;;
81211;SDS011;70686;52.494;13.420;2023-08-24T04:36:01;7.70;;;5.30;;
81211;SDS011;70686;52.494;13.420;2023-08-24T04:38:28;7.45;;;5.18;;
81211;SDS011;70686;52.494;13.420;2023-08-24T04:40:54;8.00;;;5.45;;
81211;SDS011;70686;52.494;13.420;2023-08-24T04:43:21;7.97;;;5.30;;
81211;SDS011;70686;52.494;13.420;2023-08-24T04:45:48;8.43;;;5.35;;
81211;SDS011;70686;52.494;13.420;2023-08-24T04:48:18;7.88;;;5.40;;
81211;SDS011;70686;52.494;13.420;2023-08-24T04:50:45;8.05;;;5.80;;
81211;SDS011;70686;52.494;13.420;2023-08-24T04:53:12;8.27;;;5.40;;
81211;SDS011;70686;52.494;13.420;2023-08-24T04:55:39;7.18;;;5.93;;
81211;SDS011;70686;52.494;13.420;2023-08-24T04:58:06;5.82;;;5.10;;
81211;SDS011;70686;52.494;13.420;2023-08-24T05:00:32;7.22;;;5.38;;
81211;SDS011;70686;52.494;13.420;2023-08-24T05:02:58;7.72;;;5.40;;
81211;SDS011;70686;52.494;13.420;2023-08-24T05:05:24;8.30;;;5.90;;
81211;SDS011;70686;52.494;13.420;2023-08-24T05:07:49;10.00;;;5.65;;
81211;SDS011;70686;52.494;13.420;2023-08-24T05:10:15;8.73;;;5.45;;
81211;SDS011;70686;52.494;13.420;2023-08-24T05:12:41;8.40;;;5.32;;
81211;SDS011;70686;52.494;13.420;2023-08-24T05:15:06;7.38;;;5.05;;
81211;SDS011;70686;52.494;13.420;2023-08-24T05:17:32;10.32;;;5.80;;
81211;SDS011;70686;52.494;13.420;2023-08-24T05:19:58;8.00;;;5.53;;
81211;SDS011;70686;52.494;13.420;2023-08-24T05:22:24;6.32;;;5.47;;
81211;SDS011;70686;52.494;13.420;2023-08-24T05:24:49;7.55;;;5.20;;
81211;SDS011;70686;52.494;13.420;2023-08-24T05:27:15;8.63;;;5.63;;
81211;SDS011;70686;52.494;13.420;2023-08-24T05:29:41;10.20;;;5.35;;
81211;SDS011;70686;52.494;13.420;2023-08-24T05:32:07;8.27;;;5.63;;
81211;SDS011;70686;52.494;13.420;2023-08-24T05:34:33;7.05;;;5.38;;
81211;SDS011;70686;52.494;13.420;2023-08-24T05:36:58;6.40;;;5.40;;
81211;SDS011;70686;52.494;13.420;2023-08-24T05:39:24;7.93;;;5.43;;
81211;SDS011;70686;52.494;13.420;2023-08-24T05:41:53;6.57;;;5.30;;
81211;SDS011;70686;52.494;13.420;2023-08-24T05:44:19;6.32;;;4.90;;
81211;SDS011;70686;52.494;13.420;2023-08-24T05:46:46;6.20;;;5.20;;
81211;SDS011;70686;52.494;13.420;2023-08-24T05:49:12;8.23;;;5.32;;
81211;SDS011;70686;52.494;13.420;2023-08-24T05:51:38;7.40;;;5.20;;
81211;SDS011;70686;52.494;13.420;2023-08-24T05:54:03;8.65;;;5.68;;
81211;SDS011;70686;52.494;13.420;2023-08-24T05:56:29;8.85;;;5.10;;
81211;SDS011;70686;52.494;13.420;2023-08-24T05:58:55;9.05;;;5.78;;
81211;SDS011;70686;52.494;13.420;2023-08-24T06:01:22;7.57;;;5.28;;
81211;SDS011;70686;52.494;13.420;2023-08-24T06:03:48;7.53;;;4.97;;
81211;SDS011;70686;52.494;13.420;2023-08-24T06:06:14;7.85;;;5.00;;
81211;SDS011;70686;52.494;13.420;2023-08-24T06:08:40;7.13;;;4.90;;
81211;SDS011;70686;52.494;13.420;2023-08-24T06:11:06;6.22;;;4.75;;
81211;SDS011;70686;52.494;13.420;2023-08-24T06:13:32;6.90;;;5.10;;
81211;SDS011;70686;52.494;13.420;2023-08-24T06:15:58;8.55;;;4.78;;
81211;SDS011;70686;52.494;13.420;2023-08-24T06:18:23;8.60;;;4.65;;
81211;SDS011;70686;52.494;13.420;2023-08-24T06:20:49;6.28;;;4.85;;
81211;SDS011;70686;52.494;13.420;2023-08-24T06:23:18;7.35;;;4.78;;
81211;SDS011;70686;52.494;13.420;2023-08-24T06:25:44;7.38;;;4.80;;
81211;SDS011;70686;52.494;13.420;2023-08-24T06:28:13;5.30;;;4.80;;
81211;SDS011;70686;52.494;13.420;2023-08-24T06:30:39;9.15;;;4.80;;
81211;SDS011;70686;52.494;13.420;2023-08-24T06:33:08;5.25;;;4.75;;
81211;SDS011;70686;52.494;13.420;2023-08-24T06:35:36;8.25;;;4.55;;
81211;SDS011;70686;52.494;13.420;2023-08-24T06:38:02;5.43;;;4.60;;
81211;SDS011;70686;52.494;13.420;2023-08-24T06:40:29;8.13;;;5.93;;
81211;SDS011;70686;52.494;13.420;2023-08-24T06:42:55;6.40;;;4.53;;
81211;SDS011;70686;52.494;13.420;2023-08-24T06:45:21;9.98;;;4.40;;
81211;SDS011;70686;52.494;13.420;2023-08-24T06:47:47;6.07;;;4.50;;
81211;SDS011;70686;52.494;13.420;2023-08-24T06:50:13;6.60;;;4.47;;
81211;SDS011;70686;52.494;13.420;2023-08-24T06:52:40;6.95;;;4.47;;
81211;SDS011;70686;52.494;13.420;2023-08-24T06:55:07;5.97;;;4.10;;
81211;SDS011;70686;52.494;13.420;2023-08-24T06:57:33;7.10;;;4.53;;
81211;SDS011;70686;52.494;13.420;2023-08-24T06:59:59;9.45;;;6.05;;
81211;SDS011;70686;52.494;13.420;2023-08-24T07:02:25;7.10;;;4.50;;
81211;SDS011;70686;52.494;13.420;2023-08-24T07:04:51;7.25;;;4.43;;
81211;SDS011;70686;52.494;13.420;2023-08-24T07:07:16;8.60;;;4.70;;
81211;SDS011;70686;52.494;13.420;2023-08-24T07:09:42;9.38;;;4.90;;
81211;SDS011;70686;52.494;13.420;2023-08-24T07:12:08;8.75;;;4.93;;
81211;SDS011;70686;52.494;13.420;2023-08-24T07:14:35;7.68;;;4.60;;
81211;SDS011;70686;52.494;13.420;2023-08-24T07:17:01;8.50;;;5.22;;
81211;SDS011;70686;52.494;13.420;2023-08-24T07:19:27;7.40;;;4.38;;
81211;SDS011;70686;52.494;13.420;2023-08-24T07:21:53;6.72;;;5.00;;
81211;SDS011;70686;52.494;13.420;2023-08-24T07:24:19;7.55;;;5.13;;
81211;SDS011;70686;52.494;13.420;2023-08-24T07:26:45;6.93;;;5.03;;
81211;SDS011;70686;52.494;13.420;2023-08-24T07:29:11;7.43;;;4.72;;
81211;SDS011;70686;52.494;13.420;2023-08-24T07:31:37;8.95;;;4.88;;
81211;SDS011;70686;52.494;13.420;2023-08-24T07:34:03;9.23;;;5.50;;
81211;SDS011;70686;52.494;13.420;2023-08-24T07:36:29;7.07;;;5.10;;
81211;SDS011;70686;52.494;13.420;2023-08-24T07:38:55;6.78;;;5.13;;
81211;SDS011;70686;52.494;13.420;2023-08-24T07:41:21;9.10;;;5.25;;
81211;SDS011;70686;52.494;13.420;2023-08-24T07:43:47;8.07;;;5.55;;
81211;SDS011;70686;52.494;13.420;2023-08-24T07:46:13;7.50;;;5.75;;
81211;SDS011;70686;52.494;13.420;2023-08-24T07:48:38;7.40;;;5.38;;
81211;SDS011;70686;52.494;13.420;2023-08-24T07:51:04;6.85;;;4.78;;
81211;SDS011;70686;52.494;13.420;2023-08-24T07:53:30;6.63;;;5.50;;
81211;SDS011;70686;52.494;13.420;2023-08-24T07:55:58;12.77;;;5.43;;
81211;SDS011;70686;52.494;13.420;2023-08-24T07:58:24;8.05;;;5.38;;
81211;SDS011;70686;52.494;13.420;2023-08-24T08:00:50;5.45;;;4.60;;
81211;SDS011;70686;52.494;13.420;2023-08-24T08:03:19;7.80;;;4.72;;
81211;SDS011;70686;52.494;13.420;2023-08-24T08:05:46;5.97;;;4.47;;
81211;SDS011;70686;52.494;13.420;2023-08-24T08:08:15;5.95;;;4.68;;
81211;SDS011;70686;52.494;13.420;2023-08-24T08:10:41;8.93;;;4.75;;
81211;SDS011;70686;52.494;13.420;2023-08-24T08:13:08;7.18;;;4.35;;
81211;SDS011;70686;52.494;13.420;2023-08-24T08:15:36;7.80;;;4.75;;
81211;SDS011;70686;52.494;13.420;2023-08-24T08:18:05;6.22;;;4.22;;
81211;SDS011;70686;52.494;13.420;2023-08-24T08:20:31;5.82;;;4.60;;
81211;SDS011;70686;52.494;13.420;2023-08-24T08:22:56;5.97;;;4.70;;
81211;SDS011;70686;52.494;13.420;2023-08-24T08:25:22;6.97;;;4.65;;
81211;SDS011;70686;52.494;13.420;2023-08-24T08:27:48;6.90;;;4.63;;
81211;SDS011;70686;52.494;13.420;2023-08-24T08:30:14;6.38;;;4.28;;
81211;SDS011;70686;52.494;13.420;2023-08-24T08:32:40;8.38;;;4.53;;
81211;SDS011;70686;52.494;13.420;2023-08-24T08:35:06;4.88;;;4.00;;
81211;SDS011;70686;52.494;13.420;2023-08-24T08:37:33;6.35;;;4.57;;
81211;SDS011;70686;52.494;13.420;2023-08-24T08:39:59;8.18;;;4.60;;
81211;SDS011;70686;52.494;13.420;2023-08-24T08:42:24;7.47;;;4.50;;
81211;SDS011;70686;52.494;13.420;2023-08-24T08:44:50;7.18;;;4.25;;
81211;SDS011;70686;52.494;13.420;2023-08-24T08:47:19;4.93;;;4.20;;
81211;SDS011;70686;52.494;13.420;2023-08-24T08:49:45;5.43;;;4.35;;
81211;SDS011;70686;52.494;13.420;2023-08-24T08:52:13;5.50;;;4.20;;
81211;SDS011;70686;52.494;13.420;2023-08-24T08:54:39;6.13;;;4.38;;
81211;SDS011;70686;52.494;13.420;2023-08-24T08:57:05;8.45;;;4.72;;
81211;SDS011;70686;52.494;13.420;2023-08-24T08:59:31;6.95;;;4.13;;
81211;SDS011;70686;52.494;13.420;2023-08-24T09:01:58;6.43;;;3.90;;
81211;SDS011;70686;52.494;13.420;2023-08-24T09:04:29;5.75;;;4.10;;
81211;SDS011;70686;52.494;13.420;2023-08-24T09:06:56;5.88;;;4.50;;
81211;SDS011;70686;52.494;13.420;2023-08-24T09:09:22;7.97;;;4.13;;
81211;SDS011;70686;52.494;13.420;2023-08-24T09:11:49;7.18;;;4.30;;
81211;SDS011;70686;52.494;13.420;2023-08-24T09:14:15;10.50;;;4.78;;
81211;SDS011;70686;52.494;13.420;2023-08-24T09:16:41;9.00;;;4.20;;
81211;SDS011;70686;52.494;13.420;2023-08-24T09:19:10;8.20;;;4.15;;
81211;SDS011;70686;52.494;13.420;2023-08-24T09:21:39;6.93;;;4.13;;
81211;SDS011;70686;52.494;13.420;2023-08-24T09:24:07;7.05;;;3.63;;
81211;SDS011;70686;52.494;13.420;2023-08-24T09:26:37;7.90;;;4.35;;
81211;SDS011;70686;52.494;13.420;2023-08-24T09:29:11;5.97;;;4.38;;
81211;SDS011;70686;52.494;13.420;2023-08-24T09:31:41;5.18;;;3.67;;
81211;SDS011;70686;52.494;13.420;2023-08-24T09:34:10;5.45;;;3.90;;
81211;SDS011;70686;52.494;13.420;2023-08-24T09:36:36;5.13;;;3.55;;
81211;SDS011;70686;52.494;13.420;2023-08-24T09:39:03;7.05;;;3.97;;
81211;SDS011;70686;52.494;13.420;2023-08-24T09:41:46;6.95;;;3.63;;
81211;SDS011;70686;52.494;13.420;2023-08-24T09:44:13;5.57;;;3.60;;
81211;SDS011;70686;52.494;13.420;2023-08-24T09:46:39;6.85;;;3.53;;
81211;SDS011;70686;52.494;13.420;2023-08-24T09:49:09;5.13;;;3.70;;
81211;SDS011;70686;52.494;13.420;2023-08-24T09:51:36;7.45;;;4.10;;
81211;SDS011;70686;52.494;13.420;2023-08-24T09:54:07;6.78;;;3.65;;
81211;SDS011;70686;52.494;13.420;2023-08-24T09:56:34;5.60;;;3.55;;
81211;SDS011;70686;52.494;13.420;2023-08-24T09:59:12;6.25;;;3.60;;
81211;SDS011;70686;52.494;13.420;2023-08-24T10:01:47;3.85;;;3.45;;
81211;SDS011;70686;52.494;13.420;2023-08-24T10:04:17;5.43;;;3.40;;
81211;SDS011;70686;52.494;13.420;2023-08-24T10:06:50;6.43;;;3.40;;
81211;SDS011;70686;52.494;13.420;2023-08-24T10:09:19;5.97;;;3.10;;
81211;SDS011;70686;52.494;13.420;2023-08-24T10:11:49;6.15;;;3.67;;
81211;SDS011;70686;52.494;13.420;2023-08-24T10:16:54;5.60;;;3.30;;
81211;SDS011;70686;52.494;13.420;2023-08-24T10:19:21;6.07;;;3.53;;
81211;SDS011;70686;52.494;13.420;2023-08-24T10:21:48;5.38;;;3.35;;
81211;SDS011;70686;52.494;13.420;2023-08-24T10:24:15;4.82;;;3.30;;
81211;SDS011;70686;52.494;13.420;2023-08-24T10:26:41;3.45;;;3.13;;
81211;SDS011;70686;52.494;13.420;2023-08-24T10:29:08;4.35;;;3.78;;
81211;SDS011;70686;52.494;13.420;2023-08-24T10:31:35;5.50;;;3.20;;
81211;SDS011;70686;52.494;13.420;2023-08-24T10:34:01;5.18;;;3.25;;
81211;SDS011;70686;52.494;13.420;2023-08-24T10:36:31;3.90;;;3.30;;
81211;SDS011;70686;52.494;13.420;2023-08-24T10:38:56;6.75;;;3.97;;
81211;SDS011;70686;52.494;13.420;2023-08-24T10:41:25;3.70;;;3.17;;
81211;SDS011;70686;52.494;13.420;2023-08-24T10:43:52;4.82;;;3.30;;
81211;SDS011;70686;52.494;13.420;2023-08-24T10:46:28;4.03;;;3.50;;
81211;SDS011;70686;52.494;13.420;2023-08-24T10:49:03;4.68;;;3.72;;
81211;SDS011;70686;52.494;13.420;2023-08-24T10:51:29;4.22;;;3.53;;
81211;SDS011;70686;52.494;13.420;2023-08-24T10:53:57;5.28;;;3.67;;
81211;SDS011;70686;52.494;13.420;2023-08-24T10:56:37;6.38;;;3.72;;
81211;SDS011;70686;52.494;13.420;2023-08-24T10:59:11;6.15;;;4.15;;
81211;SDS011;70686;52.494;13.420;2023-08-24T11:01:38;5.60;;;3.67;;
81211;SDS011;70686;52.494;13.420;2023-08-24T11:04:10;4.60;;;3.53;;
81211;SDS011;70686;52.494;13.420;2023-08-24T11:06:50;4.97;;;3.80;;
81211;SDS011;70686;52.494;13.420;2023-08-24T11:09:20;5.47;;;3.95;;
81211;SDS011;70686;52.494;13.420;2023-08-24T11:11:56;6.07;;;4.00;;
81211;SDS011;70686;52.494;13.420;2023-08-24T11:14:23;4.60;;;3.85;;
81211;SDS011;70686;52.494;13.420;2023-08-24T11:16:51;6.38;;;4.10;;
81211;SDS011;70686;52.494;13.420;2023-08-24T11:19:17;4.45;;;3.90;;
81211;SDS011;70686;52.494;13.420;2023-08-24T11:21:45;6.75;;;3.92;;
81211;SDS011;70686;52.494;13.420;2023-08-24T11:24:12;6.65;;;3.90;;
81211;SDS011;70686;52.494;13.420;2023-08-24T11:26:42;5.13;;;4.00;;
81211;SDS011;70686;52.494;13.420;2023-08-24T11:29:09;5.45;;;4.05;;
81211;SDS011;70686;52.494;13.420;2023-08-24T11:31:36;6.35;;;4.53;;
81211;SDS011;70686;52.494;13.420;2023-08-24T11:34:02;5.95;;;4.50;;
81211;SDS011;70686;52.494;13.420;2023-08-24T11:36:29;8.38;;;4.40;;
81211;SDS011;70686;52.494;13.420;2023-08-24T11:39:17;6.63;;;4.45;;
81211;SDS011;70686;52.494;13.420;2023-08-24T11:41:45;7.50;;;4.30;;
81211;SDS011;70686;52.494;13.420;2023-08-24T11:44:22;6.35;;;3.90;;
81211;SDS011;70686;52.494;13.420;2023-08-24T11:46:48;5.70;;;4.43;;
81211;SDS011;70686;52.494;13.420;2023-08-24T11:49:14;5.70;;;4.50;;
81211;SDS011;70686;52.494;13.420;2023-08-24T11:51:39;5.28;;;4.60;;
81211;SDS011;70686;52.494;13.420;2023-08-24T11:54:05;5.28;;;4.30;;
81211;SDS011;70686;52.494;13.420;2023-08-24T11:56:31;8.43;;;4.57;;
81211;SDS011;70686;52.494;13.420;2023-08-24T11:58:57;5.57;;;4.10;;
81211;SDS011;70686;52.494;13.420;2023-08-24T12:01:23;7.43;;;4.88;;
81211;SDS011;70686;52.494;13.420;2023-08-24T12:03:52;5.88;;;4.38;;
81211;SDS011;70686;52.494;13.420;2023-08-24T12:06:17;12.10;;;5.15;;
81211;SDS011;70686;52.494;13.420;2023-08-24T12:08:47;6.00;;;4.80;;
81211;SDS011;70686;52.494;13.420;2023-08-24T12:11:14;7.72;;;4.70;;
81211;SDS011;70686;52.494;13.420;2023-08-24T12:13:51;7.07;;;4.22;;
81211;SDS011;70686;52.494;13.420;2023-08-24T12:16:19;5.50;;;4.82;;
81211;SDS011;70686;52.494;13.420;2023-08-24T12:18:53;8.63;;;4.63;;
81211;SDS011;70686;52.494;13.420;2023-08-24T12:21:22;6.43;;;4.32;;
81211;SDS011;70686;52.494;13.420;2023-08-24T12:26:41;4.43;;;4.03;;
81211;SDS011;70686;52.494;13.420;2023-08-24T12:29:07;6.03;;;4.07;;
81211;SDS011;70686;52.494;13.420;2023-08-24T12:31:34;5.00;;;4.50;;
81211;SDS011;70686;52.494;13.420;2023-08-24T12:36:32;5.18;;;4.40;;
81211;SDS011;70686;52.494;13.420;2023-08-24T12:38:58;5.93;;;4.32;;
81211;SDS011;70686;52.494;13.420;2023-08-24T12:41:24;5.22;;;4.22;;
81211;SDS011;70686;52.494;13.420;2023-08-24T12:43:50;8.18;;;4.30;;
81211;SDS011;70686;52.494;13.420;2023-08-24T12:46:17;4.95;;;4.30;;
81211;SDS011;70686;52.494;13.420;2023-08-24T12:48:45;9.20;;;4.57;;
81211;SDS011;70686;52.494;13.420;2023-08-24T12:51:11;4.75;;;4.18;;
81211;SDS011;70686;52.494;13.420;2023-08-24T12:53:37;6.55;;;4.40;;
81211;SDS011;70686;52.494;13.420;2023-08-24T12:56:03;12.05;;;6.80;;
81211;SDS011;70686;52.494;13.420;2023-08-24T12:58:29;6.80;;;4.45;;
81211;SDS011;70686;52.494;13.420;2023-08-24T13:00:55;6.25;;;4.45;;
81211;SDS011;70686;52.494;13.420;2023-08-24T13:03:21;8.93;;;4.55;;
81211;SDS011;70686;52.494;13.420;2023-08-24T13:05:47;9.80;;;4.60;;
81211;SDS011;70686;52.494;13.420;2023-08-24T13:08:12;11.35;;;5.43;;
81211;SDS011;70686;52.494;13.420;2023-08-24T13:10:39;4.40;;;4.00;;
81211;SDS011;70686;52.494;13.420;2023-08-24T13:13:07;5.90;;;4.28;;
81211;SDS011;70686;52.494;13.420;2023-08-24T13:15:33;5.10;;;3.80;;
81211;SDS011;70686;52.494;13.420;2023-08-24T13:17:59;5.05;;;3.90;;
81211;SDS011;70686;52.494;13.420;2023-08-24T13:20:25;5.47;;;4.00;;
81211;SDS011;70686;52.494;13.420;2023-08-24T13:22:53;5.07;;;3.63;;
81211;SDS011;70686;52.494;13.420;2023-08-24T13:25:19;7.50;;;4.20;;
81211;SDS011;70686;52.494;13.420;2023-08-24T13:27:45;5.90;;;4.22;;
81211;SDS011;70686;52.494;13.420;2023-08-24T13:30:10;4.20;;;3.80;;
81211;SDS011;70686;52.494;13.420;2023-08-24T13:32:36;7.35;;;3.88;;
81211;SDS011;70686;52.494;13.420;2023-08-24T13:35:04;6.35;;;4.75;;
81211;SDS011;70686;52.494;13.420;2023-08-24T13:37:30;4.78;;;3.30;;
81211;SDS011;70686;52.494;13.420;2023-08-24T13:39:58;4.47;;;3.72;;
81211;SDS011;70686;52.494;13.420;2023-08-24T13:42:24;4.68;;;3.80;;
81211;SDS011;70686;52.494;13.420;2023-08-24T13:44:50;5.45;;;4.00;;
81211;SDS011;70686;52.494;13.420;2023-08-24T13:47:16;6.05;;;3.90;;
81211;SDS011;70686;52.494;13.420;2023-08-24T13:49:42;6.43;;;4.07;;
81211;SDS011;70686;52.494;13.420;2023-08-24T13:52:07;4.55;;;3.80;;
81211;SDS011;70686;52.494;13.420;2023-08-24T13:54:33;4.70;;;3.95;;
81211;SDS011;70686;52.494;13.420;2023-08-24T13:56:59;4.20;;;3.38;;
81211;SDS011;70686;52.494;13.420;2023-08-24T13:59:28;6.78;;;3.75;;
81211;SDS011;70686;52.494;13.420;2023-08-24T14:01:54;6.28;;;4.10;;
81211;SDS011;70686;52.494;13.420;2023-08-24T14:04:23;7.68;;;5.07;;
81211;SDS011;70686;52.494;13.420;2023-08-24T14:06:48;4.47;;;3.60;;
81211;SDS011;70686;52.494;13.420;2023-08-24T14:09:14;6.47;;;3.72;;
81211;SDS011;70686;52.494;13.420;2023-08-24T14:11:41;9.57;;;3.50;;
81211;SDS011;70686;52.494;13.420;2023-08-24T14:14:07;5.00;;;3.55;;
81211;SDS011;70686;52.494;13.420;2023-08-24T14:16:33;6.05;;;3.65;;
81211;SDS011;70686;52.494;13.420;2023-08-24T14:18:59;4.18;;;3.70;;
81211;SDS011;70686;52.494;13.420;2023-08-24T14:21:24;8.13;;;3.95;;
81211;SDS011;70686;52.494;13.420;2023-08-24T14:23:50;5.40;;;4.20;;
81211;SDS011;70686;52.494;13.420;2023-08-24T14:26:16;6.63;;;4.30;;
81211;SDS011;70686;52.494;13.420;2023-08-24T14:28:49;4.60;;;3.60;;
81211;SDS011;70686;52.494;13.420;2023-08-24T14:31:26;5.85;;;3.70;;
81211;SDS011;70686;52.494;13.420;2023-08-24T14:33:54;7.00;;;3.70;;
81211;SDS011;70686;52.494;13.420;2023-08-24T14:36:20;5.20;;;4.00;;
81211;SDS011;70686;52.494;13.420;2023-08-24T14:38:47;4.25;;;3.35;;
81211;SDS011;70686;52.494;13.420;2023-08-24T14:41:13;4.28;;;3.40;;
81211;SDS011;70686;52.494;13.420;2023-08-24T14:43:39;5.80;;;3.53;;
81211;SDS011;70686;52.494;13.420;2023-08-24T14:46:06;5.55;;;4.05;;
81211;SDS011;70686;52.494;13.420;2023-08-24T14:48:36;5.57;;;3.90;;